createdAt,value
2022-11-07T00:00:58.038Z,1006.63
2022-11-07T00:01:58.120Z,1006.62
2022-11-07T00:02:58.144Z,1006.66
2022-11-07T00:03:58.128Z,1006.64
2022-11-07T00:04:58.160Z,1006.61
2022-11-07T00:05:58.186Z,1006.63
2022-11-07T00:06:58.217Z,1006.67
2022-11-07T00:07:58.247Z,1006.71
2022-11-07T00:08:58.278Z,1006.76
2022-11-07T00:09:58.308Z,1006.69
2022-11-07T00:10:58.340Z,1006.71
2022-11-07T00:11:58.367Z,1006.67
2022-11-07T00:12:58.401Z,1006.62
2022-11-07T00:13:58.432Z,1006.59
2022-11-07T00:14:58.461Z,1006.67
2022-11-07T00:15:58.489Z,1006.68
2022-11-07T00:16:58.519Z,1006.69
2022-11-07T00:17:58.547Z,1006.67
2022-11-07T00:18:58.616Z,1006.68
2022-11-07T00:19:58.609Z,1006.67
2022-11-07T00:20:58.641Z,1006.69
2022-11-07T00:21:58.671Z,1006.68
2022-11-07T00:22:58.704Z,1006.74
2022-11-07T00:24:05.928Z,1006.68
2022-11-07T00:26:02.773Z,1006.66
2022-11-07T00:27:02.904Z,1006.67
2022-11-07T00:29:06.844Z,1006.60
2022-11-07T00:30:06.865Z,1006.58
2022-11-07T00:32:10.910Z,1006.59
2022-11-07T00:33:10.936Z,1006.54
2022-11-07T00:35:15.013Z,1006.57
2022-11-07T00:36:15.005Z,1006.54
2022-11-07T00:38:19.049Z,1006.57
2022-11-07T00:39:19.073Z,1006.51
2022-11-07T00:41:23.116Z,1006.52
2022-11-07T00:42:23.136Z,1006.52
2022-11-07T00:44:27.220Z,1006.55
2022-11-07T00:45:27.204Z,1006.52
2022-11-07T00:47:31.252Z,1006.56
2022-11-07T00:48:31.284Z,1006.63
2022-11-07T00:50:35.353Z,1006.56
2022-11-07T00:51:35.342Z,1006.54
2022-11-07T00:53:39.385Z,1006.42
2022-11-07T00:54:39.410Z,1006.41
2022-11-07T00:56:32.407Z,1006.44
2022-11-07T00:57:32.410Z,1006.47
2022-11-07T00:59:36.476Z,1006.43
2022-11-07T01:00:36.465Z,1006.49
2022-11-07T01:02:40.676Z,1006.54
2022-11-07T01:03:40.531Z,1006.51
2022-11-07T01:05:44.611Z,1006.40
2022-11-07T01:06:44.597Z,1006.40
2022-11-07T01:08:48.642Z,1006.37
2022-11-07T01:09:48.682Z,1006.40
2022-11-07T01:11:52.747Z,1006.38
2022-11-07T01:12:52.737Z,1006.40
2022-11-07T01:14:56.777Z,1006.51
2022-11-07T01:15:56.802Z,1006.54
2022-11-07T01:18:00.881Z,1006.61
2022-11-07T01:19:00.874Z,1006.62
2022-11-07T01:21:04.996Z,1006.48
2022-11-07T01:22:05.020Z,1006.56
2022-11-07T01:24:09.068Z,1006.50
2022-11-07T01:25:09.087Z,1006.47
2022-11-07T01:27:02.049Z,1006.54
2022-11-07T01:28:02.073Z,1006.48
2022-11-07T01:30:06.124Z,1006.44
2022-11-07T01:31:06.143Z,1006.50
2022-11-07T01:33:10.225Z,1006.52
2022-11-07T01:34:10.214Z,1006.51
2022-11-07T01:36:14.304Z,1006.49
2022-11-07T01:37:14.290Z,1006.56
2022-11-07T01:39:18.336Z,1006.50
2022-11-07T01:40:18.357Z,1006.42
2022-11-07T01:42:22.437Z,1006.45
2022-11-07T01:43:22.429Z,1006.41
2022-11-07T01:45:26.474Z,1006.43
2022-11-07T01:46:26.497Z,1006.48
2022-11-07T01:48:30.585Z,1006.39
2022-11-07T01:49:30.577Z,1006.47
2022-11-07T01:51:34.620Z,1006.46
2022-11-07T01:52:34.691Z,1006.45
2022-11-07T01:54:38.686Z,1006.46
2022-11-07T01:55:38.712Z,1006.53
2022-11-07T01:57:42.795Z,1006.47
2022-11-07T01:58:42.785Z,1006.49
2022-11-07T02:00:46.834Z,1006.49
2022-11-07T02:01:46.923Z,1006.49
2022-11-07T02:03:50.976Z,1006.42
2022-11-07T02:04:50.968Z,1006.45
2022-11-07T02:06:43.933Z,1006.42
2022-11-07T02:07:43.955Z,1006.42
2022-11-07T02:09:47.997Z,1006.39
2022-11-07T02:10:48.030Z,1006.39
2022-11-07T02:12:52.070Z,1006.33
2022-11-07T02:13:52.093Z,1006.35
2022-11-07T02:15:56.140Z,1006.33
2022-11-07T02:16:56.193Z,1006.34
2022-11-07T02:19:00.208Z,1006.36
2022-11-07T02:20:00.231Z,1006.32
2022-11-07T02:22:04.311Z,1006.33
2022-11-07T02:23:04.301Z,1006.34
2022-11-07T02:25:08.347Z,1006.36
2022-11-07T02:26:08.370Z,1006.37
2022-11-07T02:28:12.451Z,1006.28
2022-11-07T02:29:12.441Z,1006.33
2022-11-07T02:31:16.554Z,1006.40
2022-11-07T02:32:16.513Z,1006.40
2022-11-07T02:34:20.592Z,1006.42
2022-11-07T02:35:20.580Z,1006.39
2022-11-07T02:37:13.546Z,1006.38
2022-11-07T02:38:13.633Z,1006.35
2022-11-07T02:40:17.617Z,1006.41
2022-11-07T02:41:17.639Z,1006.38
2022-11-07T02:43:21.688Z,1006.39
2022-11-07T02:44:21.709Z,1006.40
2022-11-07T02:46:25.789Z,1006.33
2022-11-07T02:47:25.780Z,1006.34
2022-11-07T02:49:29.874Z,1006.31
2022-11-07T02:50:29.847Z,1006.27
2022-11-07T02:52:33.900Z,1006.29
2022-11-07T02:53:33.931Z,1006.30
2022-11-07T02:55:37.969Z,1006.29
2022-11-07T02:56:38.030Z,1006.31
2022-11-07T02:58:42.036Z,1006.34
2022-11-07T02:59:42.067Z,1006.36
2022-11-07T03:01:47.260Z,1006.34
2022-11-07T03:02:47.601Z,1006.37
2022-11-07T03:04:51.223Z,1006.37
2022-11-07T03:05:51.212Z,1006.39
2022-11-07T03:07:55.260Z,1006.41
2022-11-07T03:08:55.281Z,1006.38
2022-11-07T03:10:59.328Z,1006.44
2022-11-07T03:11:59.354Z,1006.41
2022-11-07T03:14:03.393Z,1006.42
2022-11-07T03:15:03.457Z,1006.46
2022-11-07T03:16:56.445Z,1006.39
2022-11-07T03:17:56.432Z,1006.42
2022-11-07T03:20:00.523Z,1006.52
2022-11-07T03:21:00.507Z,1006.50
2022-11-07T03:23:04.553Z,1006.49
2022-11-07T03:24:04.575Z,1006.48
2022-11-07T03:26:08.618Z,1006.49
2022-11-07T03:27:08.644Z,1006.61
2022-11-07T03:29:12.686Z,1006.57
2022-11-07T03:30:12.710Z,1006.57
2022-11-07T03:32:16.797Z,1006.63
2022-11-07T03:33:17.162Z,1006.62
2022-11-07T03:35:20.829Z,1006.59
2022-11-07T03:36:20.850Z,1006.66
2022-11-07T03:38:24.892Z,1006.67
2022-11-07T03:39:26.095Z,1006.67
2022-11-07T03:41:28.961Z,1006.72
2022-11-07T03:42:28.982Z,1006.72
2022-11-07T03:44:33.060Z,1006.72
2022-11-07T03:45:33.048Z,1006.74
2022-11-07T03:47:37.093Z,1006.75
2022-11-07T03:48:37.116Z,1006.79
2022-11-07T03:50:41.213Z,1006.79
2022-11-07T03:51:41.185Z,1006.78
2022-11-07T03:53:45.231Z,1006.79
2022-11-07T03:54:45.257Z,1006.77
2022-11-07T03:56:38.218Z,1006.88
2022-11-07T03:57:38.241Z,1006.81
2022-11-07T03:59:42.325Z,1006.76
2022-11-07T04:00:42.312Z,1006.73
2022-11-07T04:02:46.630Z,1006.74
2022-11-07T04:03:46.383Z,1006.76
2022-11-07T04:05:50.461Z,1006.72
2022-11-07T04:06:50.450Z,1006.76
2022-11-07T04:08:54.500Z,1006.71
2022-11-07T04:09:54.593Z,1006.75
2022-11-07T04:11:58.570Z,1006.84
2022-11-07T04:12:58.588Z,1006.80
2022-11-07T04:15:02.639Z,1006.73
2022-11-07T04:16:02.661Z,1006.81
2022-11-07T04:18:06.759Z,1006.76
2022-11-07T04:19:06.731Z,1006.77
2022-11-07T04:21:10.895Z,1006.89
2022-11-07T04:22:10.804Z,1006.75
2022-11-07T04:24:14.850Z,1006.78
2022-11-07T04:25:14.875Z,1006.76
2022-11-07T04:27:07.847Z,1006.84
2022-11-07T04:28:07.859Z,1006.82
2022-11-07T04:30:11.905Z,1006.89
2022-11-07T04:31:11.930Z,1006.85
2022-11-07T04:33:16.406Z,1006.85
2022-11-07T04:34:16.006Z,1006.85
2022-11-07T04:36:20.438Z,1006.90
2022-11-07T04:37:20.270Z,1006.90
2022-11-07T04:39:24.117Z,1006.92
2022-11-07T04:40:24.141Z,1006.94
2022-11-07T04:44:10.961Z,1006.94
2022-11-07T04:45:10.950Z,1006.88
2022-11-07T04:47:03.913Z,1007.01
2022-11-07T04:48:03.939Z,1006.96
2022-11-07T04:50:07.983Z,1007.00
2022-11-07T04:51:08.009Z,1007.01
2022-11-07T04:53:12.328Z,1007.06
2022-11-07T04:54:12.079Z,1006.96
2022-11-07T04:56:16.121Z,1007.03
2022-11-07T04:57:16.147Z,1007.09
2022-11-07T04:59:20.190Z,1007.10
2022-11-07T05:00:20.220Z,1007.07
2022-11-07T05:02:24.407Z,1007.05
2022-11-07T05:03:24.286Z,1007.13
2022-11-07T05:05:28.364Z,1007.08
2022-11-07T05:06:28.354Z,1007.09
2022-11-07T05:08:32.443Z,1007.07
2022-11-07T05:09:32.428Z,1007.10
2022-11-07T05:11:36.468Z,1007.14
2022-11-07T05:12:36.500Z,1007.18
2022-11-07T05:14:40.545Z,1007.16
2022-11-07T05:15:40.567Z,1007.17
2022-11-07T05:17:44.618Z,1007.19
2022-11-07T05:18:44.640Z,1007.23
2022-11-07T05:20:48.700Z,1007.25
2022-11-07T05:21:48.742Z,1007.21
2022-11-07T05:23:52.769Z,1007.21
2022-11-07T05:24:52.796Z,1007.23
2022-11-07T05:26:45.793Z,1007.28
2022-11-07T05:27:45.780Z,1007.20
2022-11-07T05:29:49.826Z,1007.22
2022-11-07T05:30:49.850Z,1007.20
2022-11-07T05:32:53.928Z,1007.24
2022-11-07T05:33:53.919Z,1007.27
2022-11-07T05:35:57.967Z,1007.30
2022-11-07T05:36:57.990Z,1007.27
2022-11-07T05:39:02.035Z,1007.31
2022-11-07T05:40:02.060Z,1007.38
2022-11-07T05:42:06.153Z,1007.38
2022-11-07T05:43:06.128Z,1007.48
2022-11-07T05:45:10.215Z,1007.41
2022-11-07T05:46:10.203Z,1007.47
2022-11-07T05:48:14.254Z,1007.41
2022-11-07T05:49:14.277Z,1007.45
2022-11-07T05:51:18.539Z,1007.47
2022-11-07T05:52:18.340Z,1007.45
2022-11-07T05:54:22.423Z,1007.50
2022-11-07T05:55:22.418Z,1007.58
2022-11-07T05:57:15.438Z,1007.51
2022-11-07T05:58:15.401Z,1007.44
2022-11-07T06:00:19.454Z,1007.54
2022-11-07T06:01:19.478Z,1007.54
2022-11-07T06:03:23.604Z,1007.49
2022-11-07T06:04:23.552Z,1007.56
2022-11-07T06:06:27.623Z,1007.56
2022-11-07T06:07:27.619Z,1007.61
2022-11-07T06:09:31.700Z,1007.63
2022-11-07T06:10:31.691Z,1007.62
2022-11-07T06:12:35.737Z,1007.71
2022-11-07T06:13:35.763Z,1007.65
2022-11-07T06:15:39.807Z,1007.69
2022-11-07T06:16:39.831Z,1007.70
2022-11-07T06:18:43.880Z,1007.71
2022-11-07T06:19:43.901Z,1007.75
2022-11-07T06:21:47.980Z,1007.75
2022-11-07T06:22:47.974Z,1007.75
2022-11-07T06:24:52.067Z,1007.74
2022-11-07T06:25:52.042Z,1007.77
2022-11-07T06:27:56.093Z,1007.76
2022-11-07T06:28:56.112Z,1007.72
2022-11-07T06:31:00.156Z,1007.68
2022-11-07T06:32:00.180Z,1007.74
2022-11-07T06:34:04.268Z,1007.71
2022-11-07T06:35:04.256Z,1007.73
2022-11-07T06:37:02.817Z,1007.85
2022-11-07T06:37:57.245Z,1007.88
2022-11-07T06:40:01.293Z,1007.80
2022-11-07T06:41:01.314Z,1007.77
2022-11-07T06:43:05.359Z,1007.84
2022-11-07T06:44:05.384Z,1007.79
2022-11-07T06:46:09.429Z,1007.80
2022-11-07T06:47:09.454Z,1007.71
2022-11-07T06:49:13.533Z,1007.83
2022-11-07T06:50:13.524Z,1007.80
2022-11-07T06:52:17.704Z,1007.93
2022-11-07T06:53:18.046Z,1007.89
2022-11-07T06:55:21.674Z,1007.90
2022-11-07T06:56:21.702Z,1007.90
2022-11-07T06:58:26.720Z,1007.85
2022-11-07T06:59:25.780Z,1007.83
2022-11-07T07:01:29.938Z,1007.90
2022-11-07T07:02:56.966Z,1007.98
2022-11-07T07:04:33.893Z,1007.96
2022-11-07T07:05:33.924Z,1007.97
2022-11-07T07:07:37.999Z,1007.93
2022-11-07T07:08:37.988Z,1007.97
2022-11-07T07:10:42.034Z,1008.01
2022-11-07T07:11:42.057Z,1008.05
2022-11-07T07:13:46.104Z,1008.10
2022-11-07T07:14:46.127Z,1008.17
2022-11-07T07:16:39.124Z,1008.10
2022-11-07T07:17:39.149Z,1008.22
2022-11-07T07:19:43.222Z,1008.14
2022-11-07T07:20:43.212Z,1008.11
2022-11-07T07:22:50.264Z,1008.10
2022-11-07T07:23:47.281Z,1008.17
2022-11-07T07:25:51.328Z,1008.14
2022-11-07T07:26:51.354Z,1008.18
2022-11-07T07:28:55.439Z,1008.20
2022-11-07T07:29:55.423Z,1008.17
2022-11-07T07:31:59.470Z,1008.16
2022-11-07T07:32:59.512Z,1008.17
2022-11-07T07:33:59.527Z,1008.17
2022-11-07T07:34:59.555Z,1008.20
2022-11-07T07:35:59.589Z,1008.18
2022-11-07T07:36:59.623Z,1008.17
2022-11-07T07:37:59.745Z,1008.14
2022-11-07T07:38:59.677Z,1008.17
2022-11-07T07:39:59.711Z,1008.15
2022-11-07T07:40:59.747Z,1008.17
2022-11-07T07:41:59.780Z,1008.19
2022-11-07T07:42:59.800Z,1008.17
2022-11-07T07:43:59.833Z,1008.21
2022-11-07T07:44:59.861Z,1008.17
2022-11-07T07:45:59.932Z,1008.19
2022-11-07T07:46:59.922Z,1008.15
2022-11-07T07:47:59.956Z,1008.09
2022-11-07T07:48:59.989Z,1008.12
2022-11-07T07:50:00.024Z,1008.12
2022-11-07T07:51:00.047Z,1008.09
2022-11-07T07:52:00.086Z,1008.09
2022-11-07T07:53:01.541Z,1008.04
2022-11-07T07:54:00.252Z,1008.14
2022-11-07T07:55:00.170Z,1008.35
2022-11-07T07:56:00.201Z,1008.14
2022-11-07T07:57:00.237Z,1008.17
2022-11-07T07:58:00.266Z,1008.15
2022-11-07T07:59:00.293Z,1008.17
2022-11-07T08:00:00.330Z,1008.20
2022-11-07T08:01:00.409Z,1008.12
2022-11-07T08:02:00.499Z,1008.09
2022-11-07T08:03:00.420Z,1008.13
2022-11-07T08:04:02.353Z,1008.10
2022-11-07T08:05:00.483Z,1008.17
2022-11-07T08:06:00.515Z,1008.09
2022-11-07T08:07:00.542Z,1008.08
2022-11-07T08:08:00.577Z,1008.17
2022-11-07T08:09:00.606Z,1008.14
2022-11-07T08:10:09.830Z,1008.25
2022-11-07T08:11:00.667Z,1008.19
2022-11-07T08:12:00.698Z,1008.30
2022-11-07T08:13:00.730Z,1008.18
2022-11-07T08:14:01.777Z,1008.25
2022-11-07T08:15:00.796Z,1008.30
2022-11-07T08:16:00.824Z,1008.24
2022-11-07T08:17:00.853Z,1008.20
2022-11-07T08:18:00.885Z,1008.28
2022-11-07T08:19:00.914Z,1008.27
2022-11-07T08:20:00.946Z,1008.30
2022-11-07T08:21:00.975Z,1008.32
2022-11-07T08:22:01.012Z,1008.33
2022-11-07T08:23:01.037Z,1008.29
2022-11-07T08:24:01.074Z,1008.32
2022-11-07T08:25:01.102Z,1008.29
2022-11-07T08:26:01.233Z,1008.26
2022-11-07T08:27:01.163Z,1008.25
2022-11-07T08:28:01.193Z,1008.29
2022-11-07T08:29:01.269Z,1008.26
2022-11-07T08:30:01.256Z,1008.25
2022-11-07T08:31:01.289Z,1008.28
2022-11-07T08:32:01.320Z,1008.28
2022-11-07T08:33:01.351Z,1008.32
2022-11-07T08:34:01.444Z,1008.25
2022-11-07T08:35:01.411Z,1008.21
2022-11-07T08:36:01.444Z,1008.20
2022-11-07T08:37:01.475Z,1008.24
2022-11-07T08:38:01.508Z,1008.27
2022-11-07T08:39:01.538Z,1008.28
2022-11-07T08:40:01.568Z,1008.27
2022-11-07T08:41:01.600Z,1008.29
2022-11-07T08:42:01.633Z,1008.28
2022-11-07T08:43:01.671Z,1008.35
2022-11-07T08:44:01.694Z,1008.30
2022-11-07T08:45:01.726Z,1008.37
2022-11-07T08:46:01.757Z,1008.33
2022-11-07T08:47:07.314Z,1008.37
2022-11-07T08:48:01.823Z,1008.32
2022-11-07T08:49:01.850Z,1008.30
2022-11-07T08:50:01.884Z,1008.33
2022-11-07T08:51:01.911Z,1008.28
2022-11-07T08:52:01.944Z,1008.41
2022-11-07T08:53:03.265Z,1008.39
2022-11-07T08:54:02.007Z,1008.48
2022-11-07T08:55:02.057Z,1008.43
2022-11-07T08:56:02.076Z,1008.41
2022-11-07T08:57:02.108Z,1008.44
2022-11-07T08:58:02.141Z,1008.40
2022-11-07T08:59:02.165Z,1008.37
2022-11-07T09:00:02.201Z,1008.38
2022-11-07T09:01:02.277Z,1008.35
2022-11-07T09:02:44.681Z,1008.34
2022-11-07T09:04:02.472Z,1008.42
2022-11-07T09:05:02.354Z,1008.41
2022-11-07T09:06:02.390Z,1008.39
2022-11-07T09:07:02.418Z,1008.36
2022-11-07T09:08:02.467Z,1008.41
2022-11-07T09:09:02.481Z,1008.38
2022-11-07T09:10:02.514Z,1008.34
2022-11-07T09:11:02.545Z,1008.39
2022-11-07T09:12:02.579Z,1008.34
2022-11-07T09:13:02.632Z,1008.37
2022-11-07T09:14:02.642Z,1008.40
2022-11-07T09:15:02.672Z,1008.43
2022-11-07T09:16:02.705Z,1008.43
2022-11-07T09:17:02.756Z,1008.44
2022-11-07T09:18:02.769Z,1008.43
2022-11-07T09:19:02.840Z,1008.42
2022-11-07T09:20:02.831Z,1008.47
2022-11-07T09:21:02.862Z,1008.49
2022-11-07T09:22:02.893Z,1008.40
2022-11-07T09:23:02.926Z,1008.43
2022-11-07T09:24:02.958Z,1008.37
2022-11-07T09:25:02.992Z,1008.36
2022-11-07T09:26:03.024Z,1008.42
2022-11-07T09:27:03.054Z,1008.38
2022-11-07T09:28:03.088Z,1008.41
2022-11-07T09:29:03.120Z,1008.47
2022-11-07T09:30:03.272Z,1008.47
2022-11-07T09:31:03.180Z,1008.41
2022-11-07T09:32:23.467Z,1008.49
2022-11-07T09:33:03.253Z,1008.50
2022-11-07T09:34:03.277Z,1008.51
2022-11-07T09:35:05.094Z,1008.50
2022-11-07T09:36:03.435Z,1008.46
2022-11-07T09:37:03.372Z,1008.60
2022-11-07T09:38:03.405Z,1008.50
2022-11-07T09:39:03.442Z,1008.52
2022-11-07T09:40:03.472Z,1008.59
2022-11-07T09:41:03.503Z,1008.50
2022-11-07T09:42:03.532Z,1008.58
2022-11-07T09:43:03.563Z,1008.58
2022-11-07T09:44:04.890Z,1008.51
2022-11-07T09:45:03.629Z,1008.62
2022-11-07T09:46:03.779Z,1008.59
2022-11-07T09:47:03.690Z,1008.60
2022-11-07T09:48:03.725Z,1008.61
2022-11-07T09:49:03.756Z,1008.57
2022-11-07T09:50:03.790Z,1008.60
2022-11-07T09:51:03.822Z,1008.53
2022-11-07T09:52:03.860Z,1008.59
2022-11-07T09:53:03.883Z,1008.56
2022-11-07T09:54:03.919Z,1008.60
2022-11-07T09:55:03.951Z,1008.51
2022-11-07T09:56:03.988Z,1008.58
2022-11-07T09:57:04.017Z,1008.58
2022-11-07T09:58:04.047Z,1008.51
2022-11-07T09:59:04.079Z,1008.59
2022-11-07T10:00:04.113Z,1008.65
2022-11-07T10:01:04.187Z,1008.55
2022-11-07T10:02:04.237Z,1008.65
2022-11-07T10:03:04.208Z,1008.65
2022-11-07T10:04:24.220Z,1008.59
2022-11-07T10:05:04.271Z,1008.64
2022-11-07T10:06:04.304Z,1008.57
2022-11-07T10:07:04.337Z,1008.63
2022-11-07T10:08:04.369Z,1008.62
2022-11-07T10:09:04.402Z,1008.62
2022-11-07T10:10:04.434Z,1008.68
2022-11-07T10:11:04.467Z,1008.67
2022-11-07T10:12:04.500Z,1008.69
2022-11-07T10:13:04.540Z,1008.66
2022-11-07T10:14:04.568Z,1008.64
2022-11-07T10:15:04.601Z,1008.69
2022-11-07T10:16:04.639Z,1008.66
2022-11-07T10:17:04.670Z,1008.66
2022-11-07T10:18:04.704Z,1008.61
2022-11-07T10:19:04.738Z,1008.61
2022-11-07T10:20:04.859Z,1008.61
2022-11-07T10:21:35.890Z,1008.64
2022-11-07T10:22:04.847Z,1008.71
2022-11-07T10:23:04.878Z,1008.58
2022-11-07T10:24:04.915Z,1008.66
2022-11-07T10:25:04.963Z,1008.64
2022-11-07T10:26:04.988Z,1008.77
2022-11-07T10:27:05.023Z,1008.58
2022-11-07T10:28:05.061Z,1008.66
2022-11-07T10:29:05.096Z,1008.74
2022-11-07T10:30:05.137Z,1008.72
2022-11-07T10:31:05.177Z,1008.66
2022-11-07T10:32:05.205Z,1008.69
2022-11-07T10:33:05.274Z,1008.73
2022-11-07T10:34:05.303Z,1008.68
2022-11-07T10:35:05.313Z,1008.73
2022-11-07T10:36:05.351Z,1008.66
2022-11-07T10:37:05.391Z,1008.60
2022-11-07T10:38:05.425Z,1008.74
2022-11-07T10:39:05.461Z,1008.71
2022-11-07T10:40:10.953Z,1008.71
2022-11-07T10:41:05.532Z,1008.75
2022-11-07T10:42:05.572Z,1008.79
2022-11-07T10:43:05.607Z,1008.79
2022-11-07T10:44:05.751Z,1008.73
2022-11-07T10:45:05.682Z,1008.71
2022-11-07T10:46:05.722Z,1008.70
2022-11-07T10:47:05.758Z,1008.78
2022-11-07T10:48:05.795Z,1008.70
2022-11-07T10:49:05.829Z,1008.73
2022-11-07T10:50:05.876Z,1008.70
2022-11-07T10:51:05.903Z,1008.69
2022-11-07T10:52:05.943Z,1008.63
2022-11-07T10:53:05.978Z,1008.60
2022-11-07T10:54:06.017Z,1008.61
2022-11-07T10:55:06.051Z,1008.69
2022-11-07T10:56:06.090Z,1008.59
2022-11-07T10:57:06.127Z,1008.62
2022-11-07T10:58:06.171Z,1008.69
2022-11-07T10:59:06.202Z,1008.69
2022-11-07T11:00:06.241Z,1008.71
2022-11-07T11:01:06.429Z,1008.61
2022-11-07T11:02:06.341Z,1008.67
2022-11-07T11:03:06.352Z,1008.62
2022-11-07T11:04:06.388Z,1008.71
2022-11-07T11:05:06.431Z,1008.72
2022-11-07T11:06:06.466Z,1008.70
2022-11-07T11:07:06.499Z,1008.71
2022-11-07T11:08:06.538Z,1008.74
2022-11-07T11:09:06.594Z,1008.73
2022-11-07T11:10:06.614Z,1008.68
2022-11-07T11:11:06.708Z,1008.78
2022-11-07T11:12:06.687Z,1008.62
2022-11-07T11:13:06.730Z,1008.70
2022-11-07T11:14:06.771Z,1008.75
2022-11-07T11:15:06.802Z,1008.75
2022-11-07T11:16:06.899Z,1008.72
2022-11-07T11:17:06.973Z,1008.72
2022-11-07T11:18:06.936Z,1008.64
2022-11-07T11:19:06.972Z,1008.69
2022-11-07T11:20:06.993Z,1008.54
2022-11-07T11:21:07.032Z,1008.55
2022-11-07T11:22:09.635Z,1008.51
2022-11-07T11:23:07.111Z,1008.58
2022-11-07T11:24:07.149Z,1008.62
2022-11-07T11:25:07.188Z,1008.59
2022-11-07T11:26:07.227Z,1008.57
2022-11-07T11:27:07.266Z,1008.69
2022-11-07T11:28:07.304Z,1008.63
2022-11-07T11:29:07.351Z,1008.65
2022-11-07T11:30:07.383Z,1008.60
2022-11-07T11:31:07.422Z,1008.53
2022-11-07T11:32:07.462Z,1008.54
2022-11-07T11:33:07.510Z,1008.60
2022-11-07T11:34:07.541Z,1008.58
2022-11-07T11:35:07.585Z,1008.52
2022-11-07T11:36:07.622Z,1008.44
2022-11-07T11:37:07.661Z,1008.59
2022-11-07T11:38:07.758Z,1008.57
2022-11-07T11:39:07.739Z,1008.50
2022-11-07T11:40:07.778Z,1008.52
2022-11-07T11:41:10.794Z,1008.57
2022-11-07T11:42:07.855Z,1008.53
2022-11-07T11:43:07.895Z,1008.52
2022-11-07T11:44:07.936Z,1008.50
2022-11-07T11:45:07.975Z,1008.47
2022-11-07T11:46:08.014Z,1008.47
2022-11-07T11:47:08.056Z,1008.57
2022-11-07T11:48:08.092Z,1008.54
2022-11-07T11:49:08.131Z,1008.60
2022-11-07T11:50:08.170Z,1008.50
2022-11-07T11:51:08.209Z,1008.47
2022-11-07T11:52:08.248Z,1008.50
2022-11-07T11:53:08.287Z,1008.49
2022-11-07T11:54:08.325Z,1008.50
2022-11-07T11:55:08.364Z,1008.50
2022-11-07T11:56:08.403Z,1008.44
2022-11-07T11:57:08.449Z,1008.45
2022-11-07T11:58:08.480Z,1008.44
2022-11-07T11:59:08.520Z,1008.49
2022-11-07T12:00:08.556Z,1008.44
2022-11-07T12:01:08.596Z,1008.44
2022-11-07T12:02:08.668Z,1008.45
2022-11-07T12:03:08.673Z,1008.52
2022-11-07T12:04:08.708Z,1008.49
2022-11-07T12:05:08.749Z,1008.51
2022-11-07T12:06:08.785Z,1008.52
2022-11-07T12:07:08.839Z,1008.49
2022-11-07T12:08:08.861Z,1008.49
2022-11-07T12:09:10.546Z,1008.50
2022-11-07T12:10:08.940Z,1008.44
2022-11-07T12:11:08.975Z,1008.45
2022-11-07T12:12:09.013Z,1008.42
2022-11-07T12:13:09.062Z,1008.37
2022-11-07T12:14:09.087Z,1008.41
2022-11-07T12:15:09.128Z,1008.43
2022-11-07T12:16:09.163Z,1008.51
2022-11-07T12:17:09.200Z,1008.46
2022-11-07T12:18:09.238Z,1008.41
2022-11-07T12:19:09.281Z,1008.40
2022-11-07T12:20:09.311Z,1008.45
2022-11-07T12:21:09.351Z,1008.37
2022-11-07T12:22:09.389Z,1008.37
2022-11-07T12:23:09.430Z,1008.38
2022-11-07T12:24:09.462Z,1008.39
2022-11-07T12:25:16.711Z,1008.41
2022-11-07T12:27:02.484Z,1008.47
2022-11-07T12:28:02.517Z,1008.43
2022-11-07T12:30:06.632Z,1008.41
2022-11-07T12:31:06.631Z,1008.43
2022-11-07T12:33:10.731Z,1008.43
2022-11-07T12:34:10.737Z,1008.36
2022-11-07T12:36:14.777Z,1008.42
2022-11-07T12:37:14.800Z,1008.41
2022-11-07T12:39:07.975Z,1008.42
2022-11-07T12:40:08.004Z,1008.34
2022-11-07T12:42:12.209Z,1008.46
2022-11-07T12:43:12.136Z,1008.43
2022-11-07T12:45:16.249Z,1008.37
2022-11-07T12:46:16.233Z,1008.39
2022-11-07T12:48:13.264Z,1008.44
2022-11-07T12:49:09.440Z,1008.44
2022-11-07T12:51:02.643Z,1008.50
2022-11-07T12:52:02.689Z,1008.48
2022-11-07T12:54:06.748Z,1008.40
2022-11-07T12:55:06.729Z,1008.42
2022-11-07T12:56:59.706Z,1008.35
2022-11-07T12:57:59.746Z,1008.40
2022-11-07T12:59:53.079Z,1008.37
2022-11-07T13:00:52.967Z,1008.35
2022-11-07T13:02:56.980Z,1008.33
2022-11-07T13:03:57.015Z,1008.36
2022-11-07T13:05:49.995Z,1008.37
2022-11-07T13:06:50.027Z,1008.29
2022-11-07T13:08:43.087Z,1008.34
2022-11-07T13:09:43.081Z,1008.43
2022-11-07T13:11:47.144Z,1008.41
2022-11-07T13:12:47.182Z,1008.43
2022-11-07T13:14:51.423Z,1008.48
2022-11-07T13:16:14.439Z,1008.45
2022-11-07T13:17:55.325Z,1008.46
2022-11-07T13:18:55.359Z,1008.44
2022-11-07T13:20:59.508Z,1008.45
2022-11-07T13:21:59.466Z,1008.41
2022-11-07T13:24:03.521Z,1008.43
2022-11-07T13:25:06.773Z,1008.41
2022-11-07T13:26:56.541Z,1008.44
2022-11-07T13:27:56.570Z,1008.40
2022-11-07T13:29:49.730Z,1008.42
2022-11-07T13:30:49.762Z,1008.51
2022-11-07T13:32:53.846Z,1008.43
2022-11-07T13:33:53.871Z,1008.46
2022-11-07T13:35:57.928Z,1008.49
2022-11-07T13:36:57.958Z,1008.40
2022-11-07T13:39:02.017Z,1008.40
2022-11-07T13:40:02.041Z,1008.43
2022-11-07T13:41:55.213Z,1008.40
2022-11-07T13:42:55.271Z,1008.35
2022-11-07T13:44:59.301Z,1008.40
2022-11-07T13:45:59.331Z,1008.41
2022-11-07T13:47:52.534Z,1008.45
2022-11-07T13:48:52.521Z,1008.40
2022-11-07T13:50:56.623Z,1008.42
2022-11-07T13:51:56.616Z,1008.43
2022-11-07T13:54:00.670Z,1008.46
2022-11-07T13:55:00.700Z,1008.40
2022-11-07T13:56:53.684Z,1008.43
2022-11-07T13:57:53.710Z,1008.40
2022-11-07T13:59:57.808Z,1008.51
2022-11-07T14:00:57.906Z,1008.42
2022-11-07T14:03:01.893Z,1008.44
2022-11-07T14:04:01.886Z,1008.41
2022-11-07T14:05:55.053Z,1008.39
2022-11-07T14:06:55.085Z,1008.40
2022-11-07T14:08:59.171Z,1008.40
2022-11-07T14:09:59.169Z,1008.38
2022-11-07T14:12:03.216Z,1008.40
2022-11-07T14:13:03.244Z,1008.42
2022-11-07T14:15:07.353Z,1008.36
2022-11-07T14:16:07.369Z,1008.33
2022-11-07T14:18:00.506Z,1008.36
2022-11-07T14:19:00.534Z,1008.34
2022-11-07T14:21:04.638Z,1008.37
2022-11-07T14:22:04.652Z,1008.40
2022-11-07T14:23:57.862Z,1008.36
2022-11-07T14:24:57.851Z,1008.38
2022-11-07T14:26:50.840Z,1008.31
2022-11-07T14:27:50.867Z,1008.33
2022-11-07T14:29:54.933Z,1008.34
2022-11-07T14:30:54.964Z,1008.33
2022-11-07T14:32:59.066Z,1008.32
2022-11-07T14:33:59.063Z,1008.30
2022-11-07T14:36:03.135Z,1008.32
2022-11-07T14:37:03.162Z,1008.26
2022-11-07T14:38:56.333Z,1008.30
2022-11-07T14:39:56.361Z,1008.30
2022-11-07T14:42:01.437Z,1008.35
2022-11-07T14:43:01.527Z,1008.21
2022-11-07T14:45:05.530Z,1008.22
2022-11-07T14:46:12.462Z,1008.24
2022-11-07T14:47:58.760Z,1008.20
2022-11-07T14:48:58.754Z,1008.20
2022-11-07T14:51:02.806Z,1008.17
2022-11-07T14:52:02.907Z,1008.14
2022-11-07T14:53:55.996Z,1008.14
2022-11-07T14:54:56.025Z,1008.15
2022-11-07T14:56:49.010Z,1008.15
2022-11-07T14:57:49.035Z,1008.11
2022-11-07T14:59:42.200Z,1008.18
2022-11-07T15:00:42.230Z,1008.11
2022-11-07T15:02:35.498Z,1008.10
2022-11-07T15:03:35.426Z,1008.16
2022-11-07T15:05:39.524Z,1008.13
2022-11-07T15:06:39.528Z,1008.17
2022-11-07T15:08:32.727Z,1008.13
2022-11-07T15:09:32.716Z,1008.20
2022-11-07T15:11:25.917Z,1008.15
2022-11-07T15:12:25.916Z,1008.18
2022-11-07T15:14:19.136Z,1008.21
2022-11-07T15:15:19.122Z,1008.22
2022-11-07T15:17:12.109Z,1008.23
2022-11-07T15:18:12.125Z,1008.28
2022-11-07T15:20:05.363Z,1008.26
2022-11-07T15:21:05.336Z,1008.21
2022-11-07T15:22:58.510Z,1008.28
2022-11-07T15:23:58.530Z,1008.24
2022-11-07T15:25:51.733Z,1008.21
2022-11-07T15:26:51.723Z,1008.21
2022-11-07T15:28:44.893Z,1008.30
2022-11-07T15:29:44.918Z,1008.25
2022-11-07T15:31:48.982Z,1008.23
2022-11-07T15:32:49.006Z,1008.27
2022-11-07T15:35:00.833Z,1008.19
2022-11-07T15:35:44.879Z,1008.23
2022-11-07T15:37:46.330Z,1008.21
2022-11-07T15:38:46.318Z,1008.22
2022-11-07T15:40:50.392Z,1008.23